Time;durP1;ratioP1;P1;durP2;ratioP2;P2;SDS_P1;SDS_P2;PMS_P1;PMS_P2;Temp;Humidity;BMP_temperature;BMP_pressure;BME280_temperature;BME280_humidity;BME280_pressure;Samples;Min_cycle;Max_cycle;Signal;HPM_P1;HPM_P2
2021/10/16 00:01:22;;;;;;;6.45;2.00;;;19.00;54.70;;;;;;5117354;28;20016;-50
2021/10/16 00:03:48;;;;;;;6.32;2.15;;;19.00;54.60;;;;;;5116997;28;20030;-53
2021/10/16 00:06:15;;;;;;;7.47;1.98;;;19.00;54.70;;;;;;5117112;28;20383;-54
2021/10/16 00:08:41;;;;;;;4.93;1.67;;;19.00;54.70;;;;;;5116913;28;20039;-58
2021/10/16 00:11:07;;;;;;;5.45;1.85;;;19.00;54.70;;;;;;5116913;28;20028;-54
2021/10/16 00:13:33;;;;;;;4.70;1.60;;;19.00;54.70;;;;;;5116803;28;20032;-58
2021/10/16 00:15:59;;;;;;;5.72;1.85;;;19.00;54.60;;;;;;5116771;28;20375;-54
2021/10/16 00:18:26;;;;;;;5.60;1.60;;;19.00;54.50;;;;;;5116495;28;20023;-55
2021/10/16 00:20:54;;;;;;;8.40;2.33;;;18.90;54.60;;;;;;5116783;28;20444;-55
2021/10/16 00:23:20;;;;;;;7.45;1.83;;;19.00;54.60;;;;;;5116827;28;20024;-51
2021/10/16 00:25:46;;;;;;;6.18;1.90;;;19.00;54.60;;;;;;5116701;28;20034;-54
2021/10/16 00:28:11;;;;;;;5.22;2.00;;;19.00;54.50;;;;;;5116540;28;20031;-56
2021/10/16 00:30:37;;;;;;;7.85;2.35;;;18.90;54.50;;;;;;5116487;28;20427;-56
2021/10/16 00:33:03;;;;;;;5.60;2.25;;;18.90;54.50;;;;;;5116354;28;20413;-53
2021/10/16 00:35:28;;;;;;;5.10;1.98;;;18.90;54.40;;;;;;5116768;28;20456;-50
2021/10/16 00:37:54;;;;;;;5.60;2.03;;;18.90;54.50;;;;;;5116559;28;20483;-50
2021/10/16 00:40:19;;;;;;;7.97;2.10;;;18.90;54.50;;;;;;5116008;28;20043;-50
2021/10/16 00:42:51;;;;;;;6.07;2.28;;;18.90;54.40;;;;;;5116173;28;20471;-53
2021/10/16 00:45:18;;;;;;;6.50;1.77;;;18.90;54.50;;;;;;5116232;28;20024;-55
2021/10/16 00:47:45;;;;;;;6.18;2.05;;;18.90;54.50;;;;;;5116048;28;20490;-54
2021/10/16 00:50:11;;;;;;;7.82;2.00;;;18.90;54.40;;;;;;5116116;28;20035;-55
2021/10/16 00:52:38;;;;;;;7.03;2.63;;;18.90;54.40;;;;;;5097843;28;20028;-58
2021/10/16 00:55:07;;;;;;;6.25;1.95;;;18.90;54.40;;;;;;5116272;28;20027;-56
2021/10/16 00:57:33;;;;;;;4.78;2.10;;;18.80;54.40;;;;;;5115963;28;20020;-52
2021/10/16 00:59:59;;;;;;;6.20;2.33;;;18.90;54.40;;;;;;5115305;28;20027;-50
2021/10/16 01:02:24;;;;;;;6.70;2.20;;;18.90;54.30;;;;;;5116110;28;20022;-57
2021/10/16 01:04:50;;;;;;;6.25;1.92;;;18.90;54.30;;;;;;5116032;28;20490;-55
2021/10/16 01:07:15;;;;;;;4.82;1.67;;;18.90;54.20;;;;;;5115770;28;20019;-55
2021/10/16 01:09:45;;;;;;;7.22;2.05;;;18.90;54.10;;;;;;5115840;28;20031;-51
2021/10/16 01:12:11;;;;;;;6.28;2.25;;;18.90;54.20;;;;;;5115583;28;20023;-54
2021/10/16 01:14:48;;;;;;;7.25;2.05;;;18.80;54.20;;;;;;5115606;28;20356;-52
2021/10/16 01:17:17;;;;;;;5.22;1.77;;;18.80;54.30;;;;;;5115692;28;20538;-49
2021/10/16 01:19:45;;;;;;;6.03;2.03;;;18.90;54.20;;;;;;5115400;28;20059;-56
2021/10/16 01:22:12;;;;;;;6.25;2.20;;;18.90;54.20;;;;;;5115776;28;20067;-53
2021/10/16 01:24:38;;;;;;;6.88;2.15;;;18.90;54.20;;;;;;5115435;28;20027;-55
2021/10/16 01:27:05;;;;;;;5.70;2.03;;;18.80;54.00;;;;;;5115404;28;20019;-49
2021/10/16 01:29:33;;;;;;;5.65;2.03;;;18.80;54.10;;;;;;5115356;28;20074;-53
2021/10/16 01:32:01;;;;;;;5.88;2.15;;;18.80;54.10;;;;;;5115567;28;20023;-50
2021/10/16 01:34:27;;;;;;;5.50;2.00;;;18.90;54.10;;;;;;5115241;28;20020;-56
2021/10/16 01:36:53;;;;;;;5.35;1.77;;;18.80;54.10;;;;;;5115429;28;20509;-52
2021/10/16 01:39:19;;;;;;;6.38;2.15;;;18.80;54.00;;;;;;5115046;28;20040;-50
2021/10/16 01:41:46;;;;;;;6.75;2.08;;;18.90;53.90;;;;;;5115061;28;20069;-54
2021/10/16 01:44:12;;;;;;;5.70;2.20;;;18.80;54.00;;;;;;5115056;28;20501;-50
2021/10/16 01:46:40;;;;;;;5.30;2.10;;;18.80;54.00;;;;;;5115068;28;20024;-56
2021/10/16 01:49:11;;;;;;;7.53;1.92;;;18.80;53.90;;;;;;5114970;28;20024;-52
2021/10/16 01:51:37;;;;;;;6.07;2.10;;;18.80;53.90;;;;;;5115217;28;20449;-56
2021/10/16 01:54:03;;;;;;;6.50;2.53;;;18.80;53.90;;;;;;5114804;28;20055;-54
2021/10/16 01:56:29;;;;;;;6.50;2.17;;;18.80;53.90;;;;;;5114952;28;20108;-50
2021/10/16 01:58:54;;;;;;;5.78;1.85;;;18.80;53.80;;;;;;5114876;28;20039;-51
2021/10/16 02:01:20;;;;;;;5.25;1.88;;;18.80;53.80;;;;;;5114970;28;20452;-53
2021/10/16 02:03:45;;;;;;;4.65;2.10;;;18.80;53.70;;;;;;5114718;28;20429;-52
2021/10/16 02:06:11;;;;;;;5.85;2.05;;;18.80;53.70;;;;;;5114850;28;20467;-51
2021/10/16 02:08:38;;;;;;;5.28;2.08;;;18.80;53.80;;;;;;5114792;28;20027;-53
2021/10/16 02:11:04;;;;;;;5.90;2.17;;;18.80;53.80;;;;;;5114031;28;20073;-55
2021/10/16 02:13:30;;;;;;;6.55;2.08;;;18.80;53.60;;;;;;5114023;28;20103;-56
2021/10/16 02:15:55;;;;;;;6.40;2.00;;;18.80;53.80;;;;;;5114587;28;20054;-50
2021/10/16 02:18:21;;;;;;;6.05;2.00;;;18.80;53.60;;;;;;5114564;28;20527;-50
2021/10/16 02:20:46;;;;;;;5.05;1.90;;;18.80;53.60;;;;;;5114375;28;20539;-50
2021/10/16 02:23:12;;;;;;;5.57;2.20;;;18.80;53.70;;;;;;5114256;28;20058;-49
2021/10/16 02:25:37;;;;;;;8.55;2.35;;;18.80;53.60;;;;;;5114130;28;20035;-50
2021/10/16 02:28:03;;;;;;;4.93;2.25;;;18.80;53.60;;;;;;5114218;28;20020;-49
2021/10/16 02:30:29;;;;;;;6.40;2.17;;;18.80;53.60;;;;;;5114146;28;20032;-50
2021/10/16 02:32:54;;;;;;;5.10;2.10;;;18.80;53.60;;;;;;5095800;28;20089;-50
2021/10/16 02:35:20;;;;;;;4.78;2.00;;;18.80;53.40;;;;;;5114057;28;20040;-57
2021/10/16 02:37:45;;;;;;;5.07;1.73;;;18.80;53.70;;;;;;5113976;28;20016;-50
2021/10/16 02:40:11;;;;;;;6.03;2.22;;;18.80;53.70;;;;;;5113655;28;20052;-54
2021/10/16 02:42:37;;;;;;;7.65;2.58;;;18.80;53.70;;;;;;5114454;28;20359;-51
2021/10/16 02:45:03;;;;;;;5.70;2.25;;;18.80;53.60;;;;;;5114141;28;20055;-52
2021/10/16 02:47:31;;;;;;;5.85;2.05;;;18.80;53.40;;;;;;5113852;28;20130;-54
2021/10/16 02:49:58;;;;;;;5.75;2.22;;;18.80;53.50;;;;;;5113872;28;20028;-51
2021/10/16 02:52:23;;;;;;;6.07;2.10;;;18.80;53.50;;;;;;5113772;28;20015;-55
2021/10/16 02:54:49;;;;;;;8.50;2.40;;;18.80;53.40;;;;;;5114213;28;20016;-53
2021/10/16 02:57:14;;;;;;;6.05;2.42;;;18.70;53.50;;;;;;5113940;28;20114;-52
2021/10/16 02:59:40;;;;;;;5.50;2.20;;;18.70;53.30;;;;;;5113492;28;20428;-54
2021/10/16 03:02:05;;;;;;;5.40;2.17;;;18.80;53.30;;;;;;5113521;28;20023;-49
2021/10/16 03:04:31;;;;;;;4.97;1.98;;;18.70;53.30;;;;;;5113586;28;20034;-53
2021/10/16 03:06:57;;;;;;;5.95;2.65;;;18.70;53.20;;;;;;5113509;28;20032;-53
2021/10/16 03:09:22;;;;;;;6.05;2.28;;;18.80;53.30;;;;;;5113384;28;20023;-50
2021/10/16 03:11:48;;;;;;;4.78;1.95;;;18.70;53.10;;;;;;5113407;28;20467;-51
2021/10/16 03:14:13;;;;;;;6.68;2.10;;;18.70;53.20;;;;;;5113525;28;20032;-50
2021/10/16 03:16:39;;;;;;;7.40;2.20;;;18.70;53.00;;;;;;5113427;28;20415;-50
2021/10/16 03:19:04;;;;;;;7.15;2.15;;;18.70;53.20;;;;;;5113316;28;20042;-52
2021/10/16 03:21:30;;;;;;;5.75;2.17;;;18.70;53.20;;;;;;5113299;28;20099;-50
2021/10/16 03:23:55;;;;;;;6.57;2.55;;;18.70;53.00;;;;;;5113285;28;20028;-49
2021/10/16 03:26:21;;;;;;;6.75;2.30;;;18.70;53.10;;;;;;5113565;28;20020;-49
2021/10/16 03:28:46;;;;;;;4.15;1.80;;;18.70;53.20;;;;;;5113138;28;20049;-50
2021/10/16 03:31:12;;;;;;;6.10;2.55;;;18.70;53.20;;;;;;5113489;28;20093;-49
2021/10/16 03:33:37;;;;;;;5.78;2.30;;;18.70;53.10;;;;;;5113755;28;20049;-51
2021/10/16 03:36:04;;;;;;;5.82;2.33;;;18.70;53.10;;;;;;5113193;28;20471;-50
2021/10/16 03:38:29;;;;;;;4.82;2.10;;;18.70;52.90;;;;;;5113085;28;20030;-55
2021/10/16 03:40:55;;;;;;;7.00;2.30;;;18.70;53.10;;;;;;5112950;28;20052;-53
2021/10/16 03:43:20;;;;;;;5.47;2.50;;;18.70;53.00;;;;;;5113162;28;20015;-55
2021/10/16 03:45:46;;;;;;;6.13;2.38;;;18.70;53.00;;;;;;5113288;28;20028;-52
2021/10/16 03:48:11;;;;;;;6.22;2.38;;;18.70;53.10;;;;;;5113123;28;20019;-49
2021/10/16 03:50:37;;;;;;;5.15;2.20;;;18.70;53.10;;;;;;5113052;28;20478;-50
2021/10/16 03:53:02;;;;;;;4.15;1.85;;;18.70;53.00;;;;;;5113190;28;20034;-51
2021/10/16 03:55:28;;;;;;;6.65;2.50;;;18.70;52.90;;;;;;5113006;28;20475;-50
2021/10/16 03:57:53;;;;;;;8.80;2.58;;;18.70;53.00;;;;;;5112905;28;20024;-50
2021/10/16 04:00:20;;;;;;;5.50;2.17;;;18.70;53.00;;;;;;5112861;28;20118;-57
2021/10/16 04:02:48;;;;;;;4.97;2.33;;;18.70;53.00;;;;;;5113116;28;20024;-56
2021/10/16 04:05:14;;;;;;;5.00;1.83;;;18.60;53.00;;;;;;5129714;28;20126;-51
2021/10/16 04:07:40;;;;;;;5.32;2.25;;;18.70;52.80;;;;;;5133315;28;20094;-51
2021/10/16 04:10:07;;;;;;;6.22;2.35;;;18.70;53.00;;;;;;5133368;28;20050;-51
2021/10/16 04:12:32;;;;;;;5.10;2.08;;;18.70;52.80;;;;;;5133567;28;20023;-51
2021/10/16 04:14:58;;;;;;;8.15;2.83;;;18.70;52.90;;;;;;5133628;28;20412;-50
2021/10/16 04:17:23;;;;;;;6.03;2.42;;;18.70;52.80;;;;;;5133369;28;20031;-51
2021/10/16 04:19:49;;;;;;;8.57;2.42;;;18.70;52.50;;;;;;5133237;28;20419;-52
2021/10/16 04:22:14;;;;;;;5.47;2.00;;;18.70;52.40;;;;;;5133245;28;20031;-56
2021/10/16 04:24:40;;;;;;;6.30;2.10;;;18.70;52.30;;;;;;5133248;28;20498;-57
2021/10/16 04:27:05;;;;;;;11.32;2.58;;;18.70;52.10;;;;;;5133466;28;20015;-50
2021/10/16 04:29:31;;;;;;;5.60;2.08;;;18.70;52.10;;;;;;5133467;28;20050;-56
2021/10/16 04:31:56;;;;;;;6.78;2.40;;;18.70;52.10;;;;;;5133171;28;20370;-53
2021/10/16 04:34:23;;;;;;;6.00;2.30;;;18.80;52.20;;;;;;5133157;27;20478;-49
2021/10/16 04:36:48;;;;;;;6.28;2.50;;;18.80;52.20;;;;;;5136875;27;20478;-53
2021/10/16 04:39:14;;;;;;;5.70;2.15;;;18.80;52.20;;;;;;5136685;27;20097;-55
2021/10/16 04:41:40;;;;;;;6.32;2.15;;;18.80;52.20;;;;;;5136879;27;20011;-56
2021/10/16 04:44:05;;;;;;;6.25;2.33;;;18.80;52.20;;;;;;5137101;27;20110;-55
2021/10/16 04:46:31;;;;;;;6.53;2.40;;;18.80;52.10;;;;;;5137056;27;20558;-56
2021/10/16 04:48:57;;;;;;;5.15;2.13;;;18.80;52.10;;;;;;5136758;27;20370;-52
2021/10/16 04:51:23;;;;;;;5.63;2.17;;;18.80;52.20;;;;;;5136541;27;20027;-54
2021/10/16 04:53:49;;;;;;;5.82;2.58;;;18.80;52.10;;;;;;5136892;27;20026;-50
2021/10/16 04:56:14;;;;;;;6.03;2.22;;;18.80;52.10;;;;;;5136716;27;20027;-48
2021/10/16 04:58:40;;;;;;;5.82;2.50;;;18.80;52.10;;;;;;5136491;27;20522;-55
2021/10/16 05:01:06;;;;;;;5.30;1.80;;;18.80;52.10;;;;;;5136557;27;20129;-55
2021/10/16 05:03:31;;;;;;;7.05;2.05;;;18.80;52.00;;;;;;5136494;27;20098;-56
2021/10/16 05:05:57;;;;;;;4.97;2.30;;;18.80;52.20;;;;;;5136307;27;20031;-51
2021/10/16 05:08:22;;;;;;;5.18;2.20;;;18.80;52.10;;;;;;5118052;27;20031;-53
2021/10/16 05:10:48;;;;;;;5.15;2.40;;;18.80;52.10;;;;;;5136314;27;20029;-53
2021/10/16 05:13:14;;;;;;;6.60;2.63;;;18.80;52.10;;;;;;5136233;27;20084;-56
2021/10/16 05:15:39;;;;;;;4.82;1.98;;;18.80;52.00;;;;;;5136269;27;20031;-53
2021/10/16 05:18:05;;;;;;;5.72;2.30;;;18.80;52.10;;;;;;5136451;27;20027;-53
2021/10/16 05:20:30;;;;;;;5.32;2.13;;;18.80;52.10;;;;;;5135884;27;20492;-48
2021/10/16 05:22:56;;;;;;;6.07;2.58;;;18.80;52.10;;;;;;5136365;27;20026;-55
2021/10/16 05:25:21;;;;;;;4.10;1.70;;;18.80;52.10;;;;;;5136075;27;20019;-52
2021/10/16 05:27:49;;;;;;;5.22;2.17;;;18.80;52.00;;;;;;5136228;27;20023;-56
2021/10/16 05:30:15;;;;;;;6.97;2.75;;;18.80;52.10;;;;;;5135988;27;20023;-54
2021/10/16 05:32:40;;;;;;;5.35;2.00;;;18.80;52.00;;;;;;5135931;27;20023;-57
2021/10/16 05:35:06;;;;;;;8.48;2.53;;;18.80;52.00;;;;;;5135999;27;20485;-53
2021/10/16 05:37:32;;;;;;;5.10;1.88;;;18.80;52.00;;;;;;5135804;27;20031;-50
2021/10/16 05:39:58;;;;;;;6.80;2.10;;;18.80;52.10;;;;;;5135459;27;20058;-51
2021/10/16 05:42:23;;;;;;;5.88;2.30;;;18.80;52.10;;;;;;5135763;27;20015;-57
2021/10/16 05:44:49;;;;;;;7.60;1.85;;;18.80;52.10;;;;;;5135922;27;20027;-55
2021/10/16 05:47:15;;;;;;;4.50;2.20;;;18.80;52.10;;;;;;5115896;27;20502;-55
2021/10/16 05:49:41;;;;;;;5.15;2.22;;;18.90;52.10;;;;;;5135487;27;20449;-53
2021/10/16 05:52:06;;;;;;;5.93;2.35;;;18.80;52.10;;;;;;5135599;27;20107;-55
2021/10/16 05:54:32;;;;;;;5.85;2.10;;;18.80;52.00;;;;;;5135611;27;20023;-58
2021/10/16 05:56:58;;;;;;;6.95;2.60;;;18.80;52.00;;;;;;5135690;27;20019;-58
2021/10/16 05:59:23;;;;;;;5.63;2.30;;;18.80;52.00;;;;;;5135284;27;20444;-50
2021/10/16 06:01:49;;;;;;;4.57;1.90;;;18.80;51.90;;;;;;5135368;27;20076;-50
2021/10/16 06:04:14;;;;;;;6.85;2.20;;;18.80;51.90;;;;;;5135183;27;20031;-53
2021/10/16 06:06:40;;;;;;;6.70;2.28;;;18.80;51.90;;;;;;5135230;27;20027;-55
2021/10/16 06:09:06;;;;;;;10.10;2.30;;;18.80;52.00;;;;;;5135303;27;20026;-53
2021/10/16 06:11:31;;;;;;;5.78;2.50;;;18.90;51.90;;;;;;5135286;27;20027;-51
2021/10/16 06:13:57;;;;;;;6.18;2.30;;;18.80;51.90;;;;;;5135098;27;20370;-53
2021/10/16 06:16:23;;;;;;;4.63;2.10;;;18.80;52.00;;;;;;5135056;27;20027;-54
2021/10/16 06:18:49;;;;;;;5.70;2.42;;;18.80;51.80;;;;;;5134807;27;20062;-51
2021/10/16 06:21:14;;;;;;;6.28;2.45;;;18.90;51.80;;;;;;5116688;27;20055;-54
2021/10/16 06:23:40;;;;;;;5.85;2.22;;;18.90;51.90;;;;;;5134888;27;20099;-54
2021/10/16 06:26:06;;;;;;;5.25;2.25;;;18.90;51.90;;;;;;5134885;27;20077;-52
2021/10/16 06:28:32;;;;;;;6.15;2.42;;;18.80;51.90;;;;;;5134842;27;20038;-53
2021/10/16 06:30:57;;;;;;;7.18;2.38;;;18.90;51.90;;;;;;5135105;27;20015;-54
2021/10/16 06:33:24;;;;;;;7.10;2.13;;;18.90;51.90;;;;;;5134641;27;20019;-54
2021/10/16 06:35:51;;;;;;;5.80;2.15;;;18.90;51.80;;;;;;5134921;27;20038;-55
2021/10/16 06:38:17;;;;;;;4.65;2.10;;;18.90;51.90;;;;;;5134516;27;20025;-56
2021/10/16 06:40:42;;;;;;;5.90;2.42;;;18.90;51.80;;;;;;5134480;27;20130;-56
2021/10/16 06:43:08;;;;;;;5.45;1.88;;;18.90;51.80;;;;;;5134828;27;20015;-50
2021/10/16 06:45:33;;;;;;;5.60;2.03;;;18.90;51.80;;;;;;5134789;27;20056;-51
2021/10/16 06:47:59;;;;;;;6.82;2.33;;;18.90;51.80;;;;;;5115817;27;20463;-56
2021/10/16 06:50:25;;;;;;;5.30;2.10;;;18.90;51.80;;;;;;5134411;27;20026;-55
2021/10/16 06:52:50;;;;;;;7.82;2.50;;;18.90;51.80;;;;;;5134531;27;20110;-50
2021/10/16 06:55:16;;;;;;;5.32;2.20;;;18.90;51.80;;;;;;5134489;27;20027;-50
2021/10/16 06:57:41;;;;;;;4.78;2.10;;;18.90;51.80;;;;;;5133995;27;20432;-50
2021/10/16 07:00:07;;;;;;;6.32;2.38;;;18.90;51.70;;;;;;5134089;27;20039;-53
2021/10/16 07:02:34;;;;;;;5.57;2.22;;;18.90;51.80;;;;;;5133888;27;20033;-54
2021/10/16 07:05:00;;;;;;;5.20;2.20;;;18.90;51.80;;;;;;5134140;27;20104;-52
2021/10/16 07:07:25;;;;;;;6.85;2.22;;;18.90;51.70;;;;;;5134020;27;20378;-52
2021/10/16 07:09:51;;;;;;;5.90;2.63;;;18.90;51.80;;;;;;5134069;27;20031;-54
2021/10/16 07:12:16;;;;;;;6.13;2.10;;;18.90;51.80;;;;;;5134105;27;20031;-50
2021/10/16 07:14:42;;;;;;;5.30;2.10;;;18.90;51.70;;;;;;5134035;27;20029;-51
2021/10/16 07:17:07;;;;;;;5.32;2.20;;;18.90;51.70;;;;;;5133908;27;20065;-51
2021/10/16 07:19:34;;;;;;;5.68;2.10;;;18.90;51.80;;;;;;5133849;27;20031;-54
2021/10/16 07:22:01;;;;;;;5.25;2.20;;;18.90;51.70;;;;;;5133878;27;20029;-57
2021/10/16 07:24:26;;;;;;;4.28;1.75;;;18.90;51.70;;;;;;5134039;27;20023;-53
2021/10/16 07:26:54;;;;;;;6.13;2.38;;;18.90;51.80;;;;;;5133971;27;20019;-51
2021/10/16 07:29:22;;;;;;;6.10;2.22;;;18.90;51.70;;;;;;5133888;27;20047;-55
2021/10/16 07:31:49;;;;;;;5.90;2.20;;;19.00;51.70;;;;;;5133718;27;20027;-50
2021/10/16 07:34:15;;;;;;;4.45;1.83;;;19.00;51.70;;;;;;5133807;27;20023;-52
2021/10/16 07:36:40;;;;;;;7.65;2.58;;;19.00;51.70;;;;;;5133947;27;20019;-54
2021/10/16 07:39:08;;;;;;;7.55;2.75;;;19.00;51.70;;;;;;5133373;28;20490;-51
2021/10/16 07:41:35;;;;;;;5.18;2.17;;;19.00;51.70;;;;;;5134068;28;20118;-53
2021/10/16 07:44:01;;;;;;;4.70;2.00;;;19.00;51.70;;;;;;5133510;28;20072;-53
2021/10/16 07:46:26;;;;;;;6.40;2.50;;;19.00;51.70;;;;;;5133520;28;20080;-55
2021/10/16 07:48:52;;;;;;;6.10;2.38;;;19.00;51.70;;;;;;5133614;28;20019;-53
2021/10/16 07:51:17;;;;;;;8.68;2.20;;;19.00;51.70;;;;;;5133476;28;20029;-53
2021/10/16 07:53:43;;;;;;;4.85;1.90;;;19.00;51.60;;;;;;5133770;28;20513;-52
2021/10/16 07:56:09;;;;;;;6.32;1.77;;;19.00;51.70;;;;;;5133500;28;20019;-52
2021/10/16 07:58:37;;;;;;;6.00;2.17;;;19.00;51.70;;;;;;5133472;28;20031;-55
2021/10/16 08:01:03;;;;;;;6.63;2.63;;;19.00;51.60;;;;;;5133605;28;20092;-57
2021/10/16 08:03:29;;;;;;;6.72;2.47;;;19.00;51.60;;;;;;5133403;28;20463;-58
2021/10/16 08:05:54;;;;;;;6.40;2.17;;;19.00;51.60;;;;;;5133401;28;20031;-55
2021/10/16 08:08:20;;;;;;;5.80;2.50;;;19.00;51.60;;;;;;5133638;28;20344;-59
2021/10/16 08:10:45;;;;;;;5.50;2.42;;;19.00;51.60;;;;;;5117149;27;20031;-56
2021/10/16 08:13:11;;;;;;;6.47;2.60;;;18.90;51.60;;;;;;5137888;27;20023;-55
2021/10/16 08:15:36;;;;;;;5.65;2.40;;;19.00;51.60;;;;;;5137293;27;20150;-52
2021/10/16 08:18:02;;;;;;;5.35;2.03;;;19.00;51.60;;;;;;5137266;27;20029;-51
2021/10/16 08:20:28;;;;;;;6.22;2.05;;;19.00;51.60;;;;;;5137327;27;20039;-49
2021/10/16 08:22:54;;;;;;;6.80;2.40;;;19.00;51.70;;;;;;5137278;27;20518;-52
2021/10/16 08:25:20;;;;;;;5.95;2.05;;;19.00;51.60;;;;;;5137907;27;20052;-54
2021/10/16 08:27:48;;;;;;;5.72;2.35;;;19.00;51.60;;;;;;5137945;27;20077;-54
2021/10/16 08:30:16;;;;;;;4.00;1.52;;;19.00;51.60;;;;;;5137721;27;20416;-53
2021/10/16 08:32:42;;;;;;;5.95;2.33;;;19.00;51.60;;;;;;5137088;27;20023;-55
2021/10/16 08:35:09;;;;;;;6.53;2.20;;;19.00;51.60;;;;;;5137762;27;20102;-55
2021/10/16 08:37:34;;;;;;;6.38;2.25;;;19.00;51.60;;;;;;5137585;27;20431;-53
2021/10/16 08:40:00;;;;;;;6.35;2.22;;;19.00;51.60;;;;;;5136722;27;20082;-52
2021/10/16 08:42:26;;;;;;;6.82;2.35;;;19.00;51.60;;;;;;5138155;27;20055;-54
2021/10/16 08:44:58;;;;;;;6.50;2.55;;;19.00;51.60;;;;;;5137150;27;20034;-49
2021/10/16 08:47:27;;;;;;;6.40;2.47;;;19.00;51.60;;;;;;5137031;27;20046;-54
2021/10/16 08:49:52;;;;;;;6.20;2.67;;;19.00;51.50;;;;;;5136805;27;20023;-52
2021/10/16 08:52:18;;;;;;;6.43;2.70;;;19.00;51.60;;;;;;5136721;27;20055;-50
2021/10/16 08:54:43;;;;;;;7.07;2.67;;;19.00;51.50;;;;;;5136620;27;20045;-51
2021/10/16 08:57:09;;;;;;;5.72;2.15;;;19.10;51.50;;;;;;5136705;27;20042;-51
2021/10/16 08:59:35;;;;;;;4.70;2.42;;;19.10;51.50;;;;;;5136611;27;20042;-51
2021/10/16 09:02:03;;;;;;;7.32;2.72;;;19.00;51.50;;;;;;5136414;27;20015;-54
2021/10/16 09:04:30;;;;;;;7.68;2.42;;;19.10;51.50;;;;;;5136294;27;20027;-49
2021/10/16 09:06:56;;;;;;;8.23;2.85;;;19.10;51.50;;;;;;5136769;27;20069;-54
2021/10/16 09:09:26;;;;;;;5.88;2.38;;;19.10;51.50;;;;;;5137690;27;20027;-50
2021/10/16 09:11:54;;;;;;;7.50;2.53;;;19.10;51.50;;;;;;5138307;27;20027;-56
2021/10/16 09:14:21;;;;;;;6.15;2.00;;;19.10;51.40;;;;;;5137315;27;20055;-54
2021/10/16 09:16:59;;;;;;;6.47;2.28;;;19.10;51.20;;;;;;5136018;27;20030;-52
2021/10/16 09:19:28;;;;;;;5.20;1.75;;;19.10;51.40;;;;;;5117502;27;20073;-54
2021/10/16 09:22:21;;;;;;;7.13;2.80;;;19.10;51.30;;;;;;5135987;27;20087;-52
2021/10/16 09:24:49;;;;;;;7.30;2.33;;;19.20;51.40;;;;;;5130829;27;20023;-53
2021/10/16 09:27:19;;;;;;;7.50;2.33;;;19.10;51.40;;;;;;5136080;27;20038;-52
2021/10/16 09:29:50;;;;;;;5.65;2.13;;;19.10;51.40;;;;;;5135815;27;20390;-52
2021/10/16 09:32:22;;;;;;;6.35;2.40;;;19.10;51.30;;;;;;5135990;27;20027;-55
2021/10/16 09:34:49;;;;;;;5.00;2.25;;;19.20;51.40;;;;;;5135825;27;20031;-54
2021/10/16 09:37:21;;;;;;;6.00;2.08;;;19.10;51.50;;;;;;5135822;27;20030;-52
2021/10/16 09:39:50;;;;;;;6.72;2.40;;;19.20;51.40;;;;;;5135694;27;20043;-53
2021/10/16 09:42:43;;;;;;;6.32;2.42;;;19.20;51.40;;;;;;5135606;27;20035;-55
2021/10/16 09:45:12;;;;;;;6.20;2.22;;;19.10;51.50;;;;;;5135414;27;20019;-52
2021/10/16 09:47:55;;;;;;;5.55;2.05;;;19.20;51.40;;;;;;5135434;27;20106;-53
2021/10/16 09:50:21;;;;;;;7.55;2.17;;;19.20;51.50;;;;;;5135848;27;20374;-51
2021/10/16 09:52:48;;;;;;;5.13;2.13;;;19.20;51.40;;;;;;5135302;27;20683;-55
2021/10/16 09:55:14;;;;;;;8.00;2.50;;;19.20;51.40;;;;;;5135757;27;20489;-53
2021/10/16 09:57:41;;;;;;;6.22;2.28;;;19.20;51.40;;;;;;5135314;27;20424;-53
2021/10/16 10:00:07;;;;;;;4.70;1.92;;;19.20;51.40;;;;;;5135808;27;20039;-54
2021/10/16 10:02:34;;;;;;;7.13;2.38;;;19.20;51.40;;;;;;5135425;27;20015;-54
2021/10/16 10:05:03;;;;;;;5.63;2.15;;;19.20;51.40;;;;;;5135146;27;20501;-55
2021/10/16 10:07:34;;;;;;;5.63;2.08;;;19.20;51.40;;;;;;5135058;27;20028;-53
2021/10/16 10:10:02;;;;;;;5.95;2.20;;;19.20;51.40;;;;;;5135107;27;20023;-55
2021/10/16 10:12:28;;;;;;;6.53;2.35;;;19.20;51.40;;;;;;5135077;27;20023;-57
2021/10/16 10:14:54;;;;;;;6.70;2.55;;;19.20;51.40;;;;;;5116931;27;20080;-56
2021/10/16 10:17:25;;;;;;;6.15;2.28;;;19.20;51.50;;;;;;5135071;27;20027;-55
2021/10/16 10:19:55;;;;;;;6.32;2.33;;;19.20;51.40;;;;;;5134915;27;20035;-54
2021/10/16 10:22:22;;;;;;;6.60;2.40;;;19.20;51.40;;;;;;5134743;27;20344;-54
2021/10/16 10:24:51;;;;;;;5.15;2.55;;;19.20;51.40;;;;;;5134651;27;20115;-55
2021/10/16 10:27:20;;;;;;;7.38;2.65;;;19.20;51.40;;;;;;5134808;27;20067;-54
2021/10/16 10:29:49;;;;;;;7.45;2.35;;;19.20;51.40;;;;;;5134788;27;20095;-51
2021/10/16 10:32:16;;;;;;;4.22;1.80;;;19.20;51.40;;;;;;5134292;27;20106;-52
2021/10/16 10:34:55;;;;;;;4.60;1.95;;;19.20;51.40;;;;;;5134653;27;20024;-51
2021/10/16 10:37:27;;;;;;;5.75;2.25;;;19.30;51.40;;;;;;5134805;27;20023;-50
2021/10/16 10:39:57;;;;;;;5.65;2.20;;;19.30;51.40;;;;;;5134280;27;20070;-52
2021/10/16 10:42:23;;;;;;;5.35;2.60;;;19.30;51.40;;;;;;5134559;27;20072;-53
2021/10/16 10:44:51;;;;;;;6.20;2.60;;;19.30;51.40;;;;;;5134303;27;20110;-53
2021/10/16 10:47:22;;;;;;;8.57;2.70;;;19.30;51.40;;;;;;5134656;27;20034;-52
2021/10/16 10:49:50;;;;;;;5.78;2.22;;;19.30;51.40;;;;;;5115725;27;20030;-49
2021/10/16 10:52:16;;;;;;;7.20;2.40;;;19.30;51.40;;;;;;5134458;27;20023;-50
2021/10/16 10:55:06;;;;;;;7.65;2.35;;;19.30;51.40;;;;;;5135124;27;20110;-52
2021/10/16 10:57:51;;;;;;;6.40;2.22;;;19.30;51.40;;;;;;5134330;27;20367;-55
2021/10/16 11:00:39;;;;;;;7.13;2.35;;;19.30;51.30;;;;;;5134310;27;20039;-52
2021/10/16 11:03:34;;;;;;;6.00;2.20;;;19.30;51.40;;;;;;5134449;27;20034;-52
2021/10/16 11:06:09;;;;;;;6.75;2.38;;;19.40;51.40;;;;;;5134072;27;20028;-53
2021/10/16 11:08:36;;;;;;;;;;;19.40;51.30;;;;;;5134392;27;20027;-54
2021/10/16 11:11:02;;;;;;;5.63;2.00;;;19.40;51.30;;;;;;5134260;27;19910;-52
2021/10/16 11:13:31;;;;;;;6.97;2.65;;;19.50;50.90;;;;;;5134143;27;20382;-51
2021/10/16 11:16:04;;;;;;;5.65;2.15;;;19.60;50.70;;;;;;5134051;27;20023;-51
2021/10/16 11:18:31;;;;;;;5.50;2.30;;;19.70;50.50;;;;;;5133869;27;20026;-56
2021/10/16 11:21:11;;;;;;;10.93;2.47;;;19.80;50.30;;;;;;5133811;27;20031;-51
2021/10/16 11:23:38;;;;;;;4.85;2.40;;;19.80;50.40;;;;;;5133813;27;20023;-53
2021/10/16 11:26:08;;;;;;;8.27;2.40;;;19.70;50.50;;;;;;5133665;27;20075;-50
2021/10/16 11:28:36;;;;;;;6.93;2.50;;;19.70;50.60;;;;;;5133551;27;20459;-52
2021/10/16 11:31:02;;;;;;;7.60;3.05;;;19.70;50.60;;;;;;5133634;27;20031;-52
2021/10/16 11:33:31;;;;;;;5.53;2.08;;;19.70;50.70;;;;;;5133575;27;20027;-52
2021/10/16 11:35:59;;;;;;;7.00;2.42;;;19.70;50.60;;;;;;5133766;27;20156;-51
2021/10/16 11:38:27;;;;;;;4.72;2.00;;;19.70;50.60;;;;;;5133747;28;20102;-49
2021/10/16 11:40:55;;;;;;;6.30;2.17;;;19.80;50.50;;;;;;5115225;28;20058;-58
2021/10/16 11:43:23;;;;;;;8.38;2.50;;;19.70;50.60;;;;;;5133942;27;20025;-55
2021/10/16 11:45:52;;;;;;;5.60;2.38;;;19.70;50.70;;;;;;5102744;27;20023;-57
2021/10/16 11:48:19;;;;;;;6.22;2.42;;;19.70;50.80;;;;;;5119255;27;20019;-55
2021/10/16 11:50:51;;;;;;;6.75;2.42;;;19.70;50.80;;;;;;5137680;27;20027;-55
2021/10/16 11:53:19;;;;;;;5.40;1.80;;;19.60;50.90;;;;;;5137903;27;20023;-53
2021/10/16 11:55:55;;;;;;;4.80;2.10;;;19.60;51.00;;;;;;5138068;27;20026;-54
2021/10/16 11:58:23;;;;;;;6.35;2.30;;;19.60;51.00;;;;;;5137756;27;20544;-56
2021/10/16 12:01:03;;;;;;;7.85;2.20;;;19.50;51.00;;;;;;5137931;27;20042;-54
2021/10/16 12:03:49;;;;;;;5.28;2.05;;;19.50;51.10;;;;;;5137917;27;20096;-53
2021/10/16 12:06:16;;;;;;;5.82;2.30;;;19.50;51.10;;;;;;5138120;27;20019;-56
2021/10/16 12:08:53;;;;;;;5.75;2.15;;;19.50;51.10;;;;;;5137459;27;20463;-55
2021/10/16 12:11:29;;;;;;;8.48;2.05;;;19.50;51.10;;;;;;5137899;27;20031;-58
2021/10/16 12:13:56;;;;;;;7.32;2.67;;;19.50;51.20;;;;;;5137637;27;20023;-51
2021/10/16 12:16:24;;;;;;;6.50;2.38;;;19.50;51.20;;;;;;5137482;27;20023;-53
2021/10/16 12:18:55;;;;;;;5.57;1.90;;;19.50;51.20;;;;;;5137146;27;20075;-50
2021/10/16 12:21:33;;;;;;;5.68;2.13;;;19.50;51.20;;;;;;5137145;27;20110;-54
2021/10/16 12:24:01;;;;;;;6.85;2.20;;;19.50;51.10;;;;;;5137503;27;20030;-58
2021/10/16 12:26:32;;;;;;;6.78;2.28;;;19.50;51.20;;;;;;5137209;27;20015;-52
2021/10/16 12:29:00;;;;;;;5.78;2.10;;;19.50;51.20;;;;;;5136921;27;20054;-54
2021/10/16 12:31:25;;;;;;;5.63;2.40;;;19.50;51.20;;;;;;5136986;27;20027;-54
2021/10/16 12:34:01;;;;;;;5.32;2.38;;;19.50;51.20;;;;;;5137026;27;20110;-55
2021/10/16 12:36:33;;;;;;;3.92;1.67;;;19.50;51.20;;;;;;5137133;27;20023;-55
2021/10/16 12:39:00;;;;;;;6.85;2.45;;;19.50;51.20;;;;;;5136636;27;20038;-54
2021/10/16 12:41:53;;;;;;;6.55;1.92;;;19.50;51.20;;;;;;5137219;27;20043;-56
2021/10/16 12:44:30;;;;;;;5.47;2.00;;;19.50;51.20;;;;;;5131523;27;20100;-53
2021/10/16 12:47:12;;;;;;;5.78;2.10;;;19.50;51.20;;;;;;5136772;27;20055;-50
2021/10/16 12:49:46;;;;;;;5.53;2.22;;;19.50;51.20;;;;;;5136721;27;20363;-54